Time;durP1;ratioP1;P1;durP2;ratioP2;P2;SDS_P1;SDS_P2;PMS_P1;PMS_P2;Temp;Humidity;BMP_temperature;BMP_pressure;BME280_temperature;BME280_humidity;BME280_pressure;Samples;Min_cycle;Max_cycle;Signal;HPM_P1;HPM_P2
2022/12/29 00:00:05;;;;;;;5.40;2.70;;;10.10;73.80;;;;;;5056124;28;20871;-71
2022/12/29 00:02:40;;;;;;;7.23;2.50;;;10.10;73.90;;;;;;5040892;28;20601;-70
2022/12/29 00:05:09;;;;;;;5.70;2.93;;;10.10;73.80;;;;;;5042118;28;21100;-71
2022/12/29 00:07:37;;;;;;;10.40;3.27;;;10.20;73.90;;;;;;5041762;28;20520;-71
2022/12/29 00:10:06;;;;;;;5.57;2.57;;;10.20;73.90;;;;;;5042656;28;20849;-71
2022/12/29 00:18:02;;;;;;;6.10;3.03;;;10.10;74.10;;;;;;5042218;28;20983;-71
2022/12/29 00:37:11;;;;;;;8.40;2.80;;;10.20;74.30;;;;;;5039538;28;20467;-70
2022/12/29 00:45:10;;;;;;;5.10;2.47;;;10.20;74.40;;;;;;5058189;28;20513;-72
2022/12/29 00:47:38;;;;;;;6.63;2.80;;;10.20;74.50;;;;;;5042520;28;20470;-72
2022/12/29 00:50:07;;;;;;;6.43;2.80;;;10.20;74.60;;;;;;5041268;28;21074;-72
2022/12/29 00:52:35;;;;;;;9.73;3.17;;;10.30;74.60;;;;;;5041392;28;20471;-71
2022/12/29 00:55:03;;;;;;;5.30;2.90;;;10.30;74.60;;;;;;5039759;28;21213;-71
2022/12/29 00:57:31;;;;;;;6.93;2.87;;;10.30;74.60;;;;;;5056419;28;20467;-72
2022/12/29 00:59:59;;;;;;;6.53;2.67;;;10.30;74.60;;;;;;5041679;28;20866;-71
2022/12/29 01:02:27;;;;;;;6.70;3.00;;;10.30;74.70;;;;;;5058196;28;20821;-71
2022/12/29 01:04:55;;;;;;;7.50;2.37;;;10.40;74.70;;;;;;5040284;28;20455;-71
2022/12/29 01:07:24;;;;;;;6.07;2.90;;;10.40;74.80;;;;;;5037525;28;20459;-71
2022/12/29 01:10:09;;;;;;;8.40;2.90;;;10.40;74.80;;;;;;5040791;28;20470;-71
2022/12/29 01:12:44;;;;;;;6.50;2.87;;;10.40;74.80;;;;;;5039601;28;20506;-71
2022/12/29 01:15:15;;;;;;;5.77;2.80;;;10.40;74.80;;;;;;5037692;28;21305;-71
2022/12/29 01:17:43;;;;;;;5.10;2.63;;;10.40;74.80;;;;;;5037480;28;20872;-71
2022/12/29 01:20:12;;;;;;;6.03;2.80;;;10.40;74.80;;;;;;5039526;28;20836;-71
2022/12/29 01:22:43;;;;;;;6.10;2.93;;;10.40;74.80;;;;;;5039165;28;21161;-72
2022/12/29 01:25:11;;;;;;;5.23;2.50;;;10.40;74.90;;;;;;5054670;28;20459;-70
2022/12/29 01:27:39;;;;;;;6.13;2.50;;;10.50;74.90;;;;;;5040996;28;20513;-72
2022/12/29 01:30:08;;;;;;;5.47;2.40;;;10.50;75.00;;;;;;5039081;28;20448;-72
2022/12/29 01:32:36;;;;;;;7.70;3.33;;;10.50;75.10;;;;;;5039967;28;20481;-72
2022/12/29 01:35:04;;;;;;;5.43;2.33;;;10.50;75.10;;;;;;5042022;28;20466;-71
2022/12/29 01:37:35;;;;;;;7.70;2.43;;;10.50;75.10;;;;;;5056181;28;21144;-71
2022/12/29 01:40:05;;;;;;;7.43;2.80;;;10.50;75.20;;;;;;5055793;28;20488;-71
2022/12/29 01:42:33;;;;;;;5.80;2.50;;;10.60;75.30;;;;;;5039085;28;20510;-71
2022/12/29 01:45:04;;;;;;;6.03;2.87;;;10.60;75.20;;;;;;5056505;28;20509;-71
2022/12/29 01:47:37;;;;;;;5.63;2.73;;;10.60;75.40;;;;;;5041201;28;20584;-71
2022/12/29 01:50:10;;;;;;;7.93;3.03;;;10.60;75.40;;;;;;5039995;28;20463;-71
2022/12/29 01:52:42;;;;;;;8.33;2.47;;;10.60;75.50;;;;;;5040853;28;20470;-71
2022/12/29 01:55:13;;;;;;;7.60;2.83;;;10.60;75.60;;;;;;5035802;28;20852;-71
2022/12/29 01:57:46;;;;;;;5.80;2.73;;;10.60;75.60;;;;;;5055133;28;20483;-71
2022/12/29 02:00:15;;;;;;;6.33;2.50;;;10.70;75.60;;;;;;5038309;28;21077;-71
2022/12/29 02:02:52;;;;;;;6.90;3.10;;;10.60;75.70;;;;;;5041013;28;20467;-71
2022/12/29 02:05:26;;;;;;;13.60;3.47;;;10.70;75.70;;;;;;5041004;28;20454;-70
2022/12/29 02:07:55;;;;;;;8.63;2.50;;;10.60;75.90;;;;;;5038905;28;21244;-72
2022/12/29 02:10:28;;;;;;;10.43;2.70;;;10.60;75.90;;;;;;5041096;28;20955;-71
2022/12/29 02:12:57;;;;;;;6.23;2.80;;;10.60;76.10;;;;;;5057249;28;20478;-71
2022/12/29 02:15:37;;;;;;;5.20;2.67;;;10.60;76.20;;;;;;5040412;28;20998;-70
2022/12/29 02:18:19;;;;;;;5.80;2.40;;;10.60;76.40;;;;;;5040221;28;20838;-72
2022/12/29 02:21:12;;;;;;;9.67;2.77;;;10.60;76.50;;;;;;5055875;28;20570;-72
2022/12/29 02:24:14;;;;;;;5.37;2.13;;;10.60;76.70;;;;;;5035556;28;20458;-72
2022/12/29 02:27:04;;;;;;;6.33;2.67;;;10.60;76.70;;;;;;5042869;28;20571;-71
2022/12/29 02:29:55;;;;;;;6.77;2.43;;;10.60;77.00;;;;;;5046219;28;20466;-71
2022/12/29 02:32:31;;;;;;;5.30;2.50;;;10.50;77.00;;;;;;5042677;28;20487;-71
2022/12/29 02:35:10;;;;;;;4.87;2.63;;;10.50;77.10;;;;;;5042686;28;20508;-71
2022/12/29 02:37:44;;;;;;;6.93;2.93;;;10.50;77.30;;;;;;5041827;28;20469;-71
2022/12/29 02:40:23;;;;;;;7.63;3.10;;;10.50;77.30;;;;;;5042769;28;20463;-71
2022/12/29 02:42:56;;;;;;;7.27;2.73;;;10.50;77.40;;;;;;5041735;28;20482;-71
2022/12/29 02:45:31;;;;;;;6.03;2.70;;;10.50;77.60;;;;;;5058755;28;20489;-71
2022/12/29 02:48:08;;;;;;;9.63;3.30;;;10.50;77.80;;;;;;5043336;28;21061;-71
2022/12/29 02:50:39;;;;;;;5.77;2.40;;;10.50;77.80;;;;;;5044064;28;20450;-71
2022/12/29 02:53:13;;;;;;;7.97;2.93;;;10.50;77.90;;;;;;5043376;28;20474;-71
2022/12/29 02:55:48;;;;;;;5.30;2.93;;;10.50;78.00;;;;;;5057719;28;20475;-72
2022/12/29 02:58:18;;;;;;;4.67;2.33;;;10.50;78.10;;;;;;5041265;28;20458;-71
2022/12/29 03:01:04;;;;;;;5.87;2.57;;;10.50;78.80;;;;;;5042036;28;20478;-70
2022/12/29 03:03:47;;;;;;;11.67;2.77;;;10.50;78.60;;;;;;5057062;28;21035;-71
2022/12/29 03:06:34;;;;;;;6.93;3.10;;;10.60;78.70;;;;;;5042470;28;20473;-72
2022/12/29 03:09:17;;;;;;;5.10;2.40;;;10.60;78.80;;;;;;5042422;28;20471;-72
2022/12/29 03:12:08;;;;;;;7.70;3.00;;;10.60;78.90;;;;;;5041511;28;20478;-72
2022/12/29 03:17:41;;;;;;;5.73;2.80;;;10.60;79.20;;;;;;5062485;28;20837;-71
2022/12/29 03:20:17;;;;;;;10.43;2.70;;;10.60;79.50;;;;;;5056454;28;20520;-72
2022/12/29 03:22:51;;;;;;;5.87;2.50;;;10.60;79.80;;;;;;5057539;28;20482;-72
2022/12/29 03:25:26;;;;;;;6.73;2.40;;;10.60;79.80;;;;;;5042499;28;20459;-71
2022/12/29 03:27:57;;;;;;;7.60;2.67;;;10.60;79.80;;;;;;5041663;28;20471;-71
2022/12/29 03:30:27;;;;;;;6.00;2.60;;;10.60;80.10;;;;;;5041991;28;21352;-71
2022/12/29 03:33:00;;;;;;;8.17;3.80;;;10.60;80.20;;;;;;5057554;28;20479;-71
2022/12/29 03:35:36;;;;;;;9.60;2.80;;;10.60;80.50;;;;;;5039043;28;20732;-72
2022/12/29 03:38:14;;;;;;;10.83;3.10;;;10.60;80.50;;;;;;5041691;28;21194;-72
2022/12/29 03:40:44;;;;;;;7.33;2.90;;;10.60;80.40;;;;;;5063067;28;20459;-72
2022/12/29 03:43:13;;;;;;;7.70;2.80;;;10.60;80.50;;;;;;5047114;28;20487;-72
2022/12/29 03:45:42;;;;;;;7.13;2.40;;;10.60;80.60;;;;;;5042581;28;20459;-71
2022/12/29 03:48:10;;;;;;;6.77;2.73;;;10.60;80.60;;;;;;5057772;28;20513;-71
2022/12/29 03:50:42;;;;;;;5.90;2.87;;;10.60;80.70;;;;;;5057522;28;20458;-72
2022/12/29 03:53:10;;;;;;;9.27;2.67;;;10.60;80.80;;;;;;5041921;28;20479;-72
2022/12/29 03:55:39;;;;;;;6.40;2.93;;;10.60;80.90;;;;;;5042025;28;20467;-72
2022/12/29 03:58:07;;;;;;;8.20;2.80;;;10.60;81.00;;;;;;5042152;28;20590;-72
2022/12/29 04:00:49;;;;;;;6.77;3.57;;;10.60;81.00;;;;;;5042556;28;21057;-71
2022/12/29 04:03:18;;;;;;;5.30;3.10;;;10.60;81.20;;;;;;5057480;28;20490;-72
2022/12/29 04:05:47;;;;;;;5.97;2.90;;;10.60;81.20;;;;;;5058262;28;20456;-71
2022/12/29 04:08:15;;;;;;;5.90;3.20;;;10.70;81.20;;;;;;5062245;28;20463;-71
2022/12/29 04:10:44;;;;;;;8.07;2.70;;;10.70;81.20;;;;;;5059719;28;20530;-71
2022/12/29 04:13:14;;;;;;;6.33;2.93;;;10.70;81.20;;;;;;5057699;28;20574;-71
2022/12/29 04:15:43;;;;;;;6.73;2.43;;;10.70;81.30;;;;;;5039684;28;20475;-72
2022/12/29 04:18:11;;;;;;;6.53;2.57;;;10.80;81.40;;;;;;5040935;28;20604;-72
2022/12/29 04:23:26;;;;;;;9.40;3.03;;;10.70;81.50;;;;;;5038515;28;20853;-71
2022/12/29 04:25:54;;;;;;;7.13;2.77;;;10.70;81.60;;;;;;5058194;28;20462;-71
2022/12/29 04:28:22;;;;;;;6.67;2.90;;;10.70;81.70;;;;;;5057017;28;20503;-71
2022/12/29 04:31:09;;;;;;;6.57;2.57;;;10.70;81.70;;;;;;5042364;28;20492;-72
2022/12/29 04:33:41;;;;;;;5.40;2.73;;;10.70;81.70;;;;;;5060752;28;20586;-72
2022/12/29 04:36:09;;;;;;;6.10;2.33;;;10.80;81.80;;;;;;5041464;28;20482;-71
2022/12/29 04:38:39;;;;;;;8.20;2.73;;;10.80;81.80;;;;;;5041219;28;20474;-72
2022/12/29 04:41:09;;;;;;;5.77;2.60;;;10.80;81.80;;;;;;5041108;28;21142;-71
2022/12/29 04:43:39;;;;;;;6.03;2.77;;;10.80;81.80;;;;;;5038683;28;20537;-71
2022/12/29 04:46:33;;;;;;;6.30;3.03;;;10.80;81.80;;;;;;5039502;28;20528;-70
2022/12/29 04:49:08;;;;;;;8.53;2.50;;;10.80;81.80;;;;;;5061823;28;20466;-72
2022/12/29 04:51:48;;;;;;;6.77;2.20;;;10.80;81.80;;;;;;5054892;28;20481;-72
2022/12/29 04:54:19;;;;;;;5.07;2.40;;;10.70;82.00;;;;;;5057203;28;20488;-72
2022/12/29 04:56:55;;;;;;;6.83;2.47;;;10.70;81.90;;;;;;5057257;28;20474;-72
2022/12/29 04:59:24;;;;;;;7.30;2.10;;;10.80;82.00;;;;;;5059156;28;20455;-72
2022/12/29 05:01:56;;;;;;;4.77;2.00;;;10.70;82.10;;;;;;5040519;28;20566;-72
2022/12/29 05:04:24;;;;;;;5.70;2.77;;;10.80;82.10;;;;;;5041519;28;20463;-71
2022/12/29 05:06:53;;;;;;;6.67;2.33;;;10.80;82.10;;;;;;5061674;28;20890;-72
2022/12/29 05:09:23;;;;;;;5.47;1.97;;;10.80;82.00;;;;;;5058164;28;20558;-72
2022/12/29 05:11:51;;;;;;;8.50;2.60;;;10.80;82.00;;;;;;5066333;28;20843;-72
2022/12/29 05:14:19;;;;;;;4.50;2.00;;;10.80;82.00;;;;;;5058697;28;20466;-72
2022/12/29 05:16:48;;;;;;;5.10;2.30;;;10.80;82.10;;;;;;5041305;28;20546;-73
2022/12/29 05:19:17;;;;;;;7.50;2.03;;;10.80;82.10;;;;;;5062323;28;20875;-72
2022/12/29 05:21:46;;;;;;;4.17;2.30;;;10.80;82.10;;;;;;5060858;28;20494;-71
2022/12/29 05:24:15;;;;;;;6.17;2.10;;;10.80;82.10;;;;;;5057096;28;20554;-72
2022/12/29 05:26:45;;;;;;;5.40;2.20;;;10.90;82.00;;;;;;5039063;28;20518;-72
2022/12/29 05:29:33;;;;;;;4.50;2.33;;;10.90;82.00;;;;;;5056537;28;20469;-72
2022/12/29 05:32:01;;;;;;;4.60;1.80;;;10.80;82.10;;;;;;5054476;28;21066;-72
2022/12/29 05:34:29;;;;;;;4.83;2.00;;;10.90;82.00;;;;;;5041952;28;20458;-72
2022/12/29 05:36:57;;;;;;;5.63;1.93;;;10.90;81.90;;;;;;5041670;28;20456;-72
2022/12/29 05:39:25;;;;;;;5.13;2.00;;;10.90;81.90;;;;;;5042431;28;20538;-71
2022/12/29 05:41:59;;;;;;;4.50;2.00;;;10.90;81.80;;;;;;5060581;28;21294;-72
2022/12/29 05:44:36;;;;;;;7.33;2.20;;;10.90;81.80;;;;;;5041285;28;20462;-71
2022/12/29 05:47:07;;;;;;;4.63;2.17;;;10.90;81.80;;;;;;5045036;28;21009;-70
2022/12/29 05:49:44;;;;;;;5.20;1.83;;;10.90;81.90;;;;;;5059411;28;20469;-70
2022/12/29 05:52:30;;;;;;;5.27;2.23;;;10.90;81.90;;;;;;5042855;28;20494;-70
2022/12/29 05:54:58;;;;;;;4.20;1.67;;;10.90;81.90;;;;;;5042880;28;21740;-70
2022/12/29 05:57:29;;;;;;;7.73;3.20;;;10.90;81.80;;;;;;5056477;28;20475;-71
2022/12/29 06:00:09;;;;;;;4.47;1.90;;;11.00;81.80;;;;;;5045346;28;20466;-70
2022/12/29 06:02:43;;;;;;;6.30;2.07;;;11.00;81.90;;;;;;5064202;28;20585;-73
2022/12/29 06:05:12;;;;;;;4.00;1.70;;;11.00;81.80;;;;;;5068793;28;20466;-72
2022/12/29 06:07:40;;;;;;;4.70;1.57;;;11.00;81.70;;;;;;5068058;28;21675;-73
2022/12/29 06:10:09;;;;;;;4.80;2.13;;;11.10;81.70;;;;;;5049896;28;20474;-72
2022/12/29 06:13:05;;;;;;;6.30;1.70;;;11.10;81.60;;;;;;5053527;28;20490;-73
2022/12/29 06:15:36;;;;;;;5.37;1.90;;;11.10;81.60;;;;;;5050032;28;21019;-73
2022/12/29 06:18:07;;;;;;;4.63;1.50;;;11.10;81.60;;;;;;5048630;28;20489;-72
2022/12/29 06:20:35;;;;;;;6.50;2.23;;;11.20;81.50;;;;;;5071540;28;20962;-73
2022/12/29 06:23:05;;;;;;;3.97;1.80;;;11.10;81.50;;;;;;5049385;28;20519;-71
2022/12/29 06:25:35;;;;;;;4.93;1.60;;;11.20;81.50;;;;;;5050347;28;20466;-71
2022/12/29 06:28:05;;;;;;;4.50;2.20;;;11.20;81.50;;;;;;5051032;28;20469;-72
2022/12/29 06:30:34;;;;;;;5.53;1.53;;;11.20;81.40;;;;;;5069815;28;20456;-72
2022/12/29 06:33:02;;;;;;;4.10;1.63;;;11.30;81.30;;;;;;5063970;28;20495;-71
2022/12/29 06:35:30;;;;;;;4.00;1.60;;;11.30;81.40;;;;;;5042013;28;20508;-71
2022/12/29 06:38:00;;;;;;;7.73;1.53;;;11.30;81.40;;;;;;5061345;28;20455;-71
2022/12/29 06:40:30;;;;;;;6.33;1.90;;;11.30;81.30;;;;;;5056867;28;20455;-71
2022/12/29 06:43:12;;;;;;;4.50;1.57;;;11.40;81.20;;;;;;5041599;28;20516;-70
2022/12/29 06:46:04;;;;;;;4.53;1.40;;;11.40;81.10;;;;;;5042228;28;20463;-70
2022/12/29 06:48:32;;;;;;;4.10;1.80;;;11.40;81.10;;;;;;5040326;28;20466;-72
2022/12/29 06:51:00;;;;;;;5.13;1.70;;;11.40;81.10;;;;;;5040405;28;20516;-72
2022/12/29 06:53:29;;;;;;;4.80;1.63;;;11.50;81.00;;;;;;5041935;28;20474;-72
2022/12/29 06:55:57;;;;;;;4.97;1.37;;;11.50;80.90;;;;;;5042510;28;20568;-73
2022/12/29 06:58:26;;;;;;;6.20;1.80;;;11.50;80.90;;;;;;5040239;28;20815;-72
2022/12/29 07:00:54;;;;;;;4.20;1.40;;;11.50;81.00;;;;;;5039226;28;21297;-72
2022/12/29 07:03:22;;;;;;;3.87;1.70;;;11.50;80.80;;;;;;5041739;28;20490;-72
2022/12/29 07:05:50;;;;;;;4.33;1.90;;;11.50;80.90;;;;;;5039058;28;20446;-72
2022/12/29 07:08:18;;;;;;;3.67;1.40;;;11.50;80.80;;;;;;5043373;28;21029;-73
2022/12/29 07:10:46;;;;;;;5.30;1.80;;;11.50;80.80;;;;;;5043539;28;20451;-71
2022/12/29 07:13:15;;;;;;;6.10;2.43;;;11.50;80.80;;;;;;5043109;28;20553;-71
2022/12/29 07:15:44;;;;;;;7.50;1.90;;;11.50;80.70;;;;;;5044246;28;20458;-72
2022/12/29 07:18:12;;;;;;;4.47;2.17;;;11.50;80.80;;;;;;5040253;28;20514;-71
2022/12/29 07:20:40;;;;;;;4.50;1.90;;;11.50;80.80;;;;;;5044008;28;20458;-72
2022/12/29 07:23:08;;;;;;;5.40;1.83;;;11.50;80.80;;;;;;5043920;28;20490;-72
2022/12/29 07:25:36;;;;;;;4.83;2.13;;;11.50;80.80;;;;;;5059960;28;20455;-72
2022/12/29 07:28:04;;;;;;;4.33;1.60;;;11.50;80.70;;;;;;5043912;28;20459;-72
2022/12/29 07:30:32;;;;;;;4.40;1.83;;;11.60;80.70;;;;;;5044672;28;20960;-72
2022/12/29 07:33:02;;;;;;;6.00;2.00;;;11.60;80.60;;;;;;5042717;28;20466;-72
2022/12/29 07:35:29;;;;;;;4.60;1.90;;;11.60;80.60;;;;;;5044729;28;20451;-72
2022/12/29 07:37:57;;;;;;;3.97;1.70;;;11.60;80.60;;;;;;5043365;28;20447;-72
2022/12/29 07:40:25;;;;;;;5.37;1.60;;;11.60;80.60;;;;;;5044482;28;20497;-72
2022/12/29 07:42:53;;;;;;;4.80;2.03;;;11.60;80.50;;;;;;5042871;28;20495;-72
2022/12/29 07:45:30;;;;;;;5.00;2.10;;;11.60;80.40;;;;;;5043020;28;20481;-72
2022/12/29 07:48:10;;;;;;;3.60;1.50;;;11.60;80.50;;;;;;5064857;28;20462;-71
2022/12/29 07:50:38;;;;;;;4.23;1.83;;;11.50;80.60;;;;;;5043714;28;20466;-72
2022/12/29 07:53:06;;;;;;;5.20;1.70;;;11.60;80.60;;;;;;5043108;28;20482;-71
2022/12/29 07:55:33;;;;;;;4.53;1.90;;;11.60;80.50;;;;;;5043753;28;20460;-71
2022/12/29 07:58:02;;;;;;;4.70;2.10;;;11.60;80.60;;;;;;5043332;28;20461;-72
2022/12/29 08:00:31;;;;;;;7.43;1.90;;;11.70;80.50;;;;;;5043272;28;20461;-72
2022/12/29 08:02:59;;;;;;;6.80;1.80;;;11.70;80.30;;;;;;5042583;28;20478;-72
2022/12/29 08:05:28;;;;;;;6.03;2.00;;;11.60;80.30;;;;;;5043961;28;20988;-72
2022/12/29 08:07:56;;;;;;;5.60;1.87;;;11.70;80.30;;;;;;5043462;28;20988;-72
2022/12/29 08:10:25;;;;;;;6.80;1.93;;;11.70;80.20;;;;;;5043858;28;20796;-72
2022/12/29 08:12:53;;;;;;;4.77;1.70;;;11.70;80.00;;;;;;5042627;28;20501;-72
2022/12/29 08:15:21;;;;;;;7.13;2.00;;;11.70;80.00;;;;;;5043451;28;21033;-72
2022/12/29 08:17:57;;;;;;;5.93;1.80;;;11.60;80.10;;;;;;5041993;28;22003;-72
2022/12/29 08:20:25;;;;;;;5.30;2.07;;;11.70;80.00;;;;;;5042479;28;21333;-71
2022/12/29 08:22:54;;;;;;;4.17;1.70;;;11.70;80.00;;;;;;5042145;28;20483;-71
2022/12/29 08:25:22;;;;;;;5.13;1.57;;;11.70;80.00;;;;;;5043601;28;20454;-71
2022/12/29 08:27:51;;;;;;;5.10;2.00;;;11.60;79.90;;;;;;5057796;28;20451;-71
2022/12/29 08:30:18;;;;;;;5.20;2.00;;;11.70;79.90;;;;;;5043795;28;20455;-71
2022/12/29 08:32:46;;;;;;;7.43;2.13;;;11.70;79.90;;;;;;5042950;28;20475;-72
2022/12/29 08:35:14;;;;;;;5.20;1.73;;;11.70;79.80;;;;;;5042960;28;20451;-72
2022/12/29 08:37:42;;;;;;;4.80;1.50;;;11.70;79.80;;;;;;5043119;28;20447;-71
2022/12/29 08:40:13;;;;;;;5.80;1.87;;;11.80;79.60;;;;;;5042253;28;21062;-72
2022/12/29 08:42:41;;;;;;;5.07;1.80;;;11.80;79.60;;;;;;5042827;28;20483;-71
2022/12/29 08:45:10;;;;;;;4.20;1.87;;;11.90;79.50;;;;;;5042964;28;20532;-72
2022/12/29 08:47:38;;;;;;;4.40;2.10;;;11.90;79.40;;;;;;5043749;28;20845;-72
2022/12/29 08:50:07;;;;;;;5.63;1.93;;;11.90;79.00;;;;;;5043208;28;20945;-71
2022/12/29 08:52:35;;;;;;;7.10;2.50;;;12.00;79.20;;;;;;5043084;28;20479;-71
2022/12/29 08:55:03;;;;;;;6.00;2.40;;;12.00;79.10;;;;;;5043230;28;21231;-72
2022/12/29 08:57:32;;;;;;;7.13;2.07;;;12.00;79.00;;;;;;5062124;28;20467;-72
2022/12/29 09:00:11;;;;;;;4.87;1.63;;;12.10;78.70;;;;;;5064426;28;20521;-72
2022/12/29 09:02:39;;;;;;;4.37;2.20;;;12.10;78.80;;;;;;5040225;28;20487;-72
2022/12/29 09:05:09;;;;;;;8.47;1.90;;;12.20;78.70;;;;;;5042433;28;20485;-72
2022/12/29 09:07:37;;;;;;;5.30;1.80;;;12.20;78.50;;;;;;5042382;28;20554;-71
2022/12/29 09:10:06;;;;;;;7.03;2.30;;;12.20;78.50;;;;;;5041948;28;20552;-71
2022/12/29 09:12:35;;;;;;;4.23;1.83;;;12.20;78.30;;;;;;5042416;28;20481;-72
2022/12/29 09:15:04;;;;;;;4.50;1.90;;;12.30;78.40;;;;;;5042858;28;20592;-71
2022/12/29 09:17:41;;;;;;;6.13;2.00;;;12.30;78.00;;;;;;5043428;28;20938;-72
2022/12/29 09:20:10;;;;;;;9.53;2.20;;;12.40;77.30;;;;;;5042761;28;21289;-72
2022/12/29 09:22:38;;;;;;;5.17;1.93;;;12.40;77.90;;;;;;5041420;28;21186;-72
2022/12/29 09:25:08;;;;;;;4.37;2.03;;;12.40;77.20;;;;;;5041790;28;20459;-72
2022/12/29 09:27:38;;;;;;;7.47;1.87;;;12.40;77.50;;;;;;5042274;28;20901;-72
2022/12/29 09:30:09;;;;;;;5.20;1.90;;;12.40;77.30;;;;;;5041640;28;20478;-72
2022/12/29 09:32:37;;;;;;;5.40;1.90;;;12.40;77.30;;;;;;5042163;28;20497;-72
2022/12/29 09:35:12;;;;;;;7.60;2.00;;;12.40;77.40;;;;;;5040818;28;20571;-71
2022/12/29 09:37:39;;;;;;;6.70;2.33;;;12.50;77.40;;;;;;5042555;28;20451;-72
2022/12/29 09:40:17;;;;;;;6.60;2.03;;;12.50;77.20;;;;;;5040444;28;20509;-71
2022/12/29 09:43:00;;;;;;;6.43;1.90;;;12.50;77.20;;;;;;5041801;28;20462;-72
2022/12/29 09:45:33;;;;;;;6.67;2.33;;;12.50;77.10;;;;;;5045047;28;20446;-71
2022/12/29 09:48:01;;;;;;;5.50;2.20;;;12.50;76.90;;;;;;5042076;28;20718;-72
2022/12/29 09:50:39;;;;;;;9.20;2.20;;;12.60;76.90;;;;;;5041278;28;20457;-71
2022/12/29 09:53:14;;;;;;;11.00;2.17;;;12.60;76.80;;;;;;5041258;28;20889;-72
2022/12/29 09:55:45;;;;;;;6.03;2.20;;;12.60;76.70;;;;;;5041844;28;20450;-73
2022/12/29 09:58:21;;;;;;;6.00;1.97;;;12.50;76.70;;;;;;5042172;28;20538;-72
2022/12/29 10:00:57;;;;;;;4.97;1.73;;;12.60;76.70;;;;;;5042039;28;20483;-72
2022/12/29 10:03:33;;;;;;;4.23;1.80;;;12.60;76.60;;;;;;5041090;28;20486;-72
2022/12/29 10:06:11;;;;;;;6.10;1.97;;;12.60;76.60;;;;;;5042143;28;20537;-72
2022/12/29 10:08:45;;;;;;;8.13;1.83;;;12.70;76.60;;;;;;5041864;28;20451;-72
2022/12/29 10:11:26;;;;;;;5.80;2.40;;;12.70;76.60;;;;;;5041615;28;20455;-72
2022/12/29 10:14:11;;;;;;;5.77;2.17;;;12.70;76.50;;;;;;5040851;28;20885;-72
2022/12/29 10:16:50;;;;;;;5.63;2.60;;;12.70;76.50;;;;;;5041649;28;20491;-72
2022/12/29 10:19:34;;;;;;;6.20;2.40;;;12.70;76.60;;;;;;5040980;28;20446;-70
2022/12/29 10:22:16;;;;;;;8.10;2.13;;;12.70;76.60;;;;;;5041673;28;21007;-73
2022/12/29 10:24:49;;;;;;;10.23;2.00;;;12.70;76.70;;;;;;5041318;28;20536;-72
2022/12/29 10:27:18;;;;;;;6.40;2.50;;;12.70;76.80;;;;;;5042108;28;20513;-72
2022/12/29 10:29:51;;;;;;;4.93;1.90;;;12.70;76.80;;;;;;5056731;28;20869;-72
2022/12/29 10:32:27;;;;;;;5.60;2.30;;;12.80;76.80;;;;;;5040094;28;21067;-71
2022/12/29 10:34:59;;;;;;;6.67;2.17;;;12.80;76.60;;;;;;5042009;28;20445;-72
2022/12/29 10:37:35;;;;;;;4.93;2.20;;;12.90;76.50;;;;;;5040277;28;20489;-71
2022/12/29 10:40:16;;;;;;;6.40;2.13;;;12.80;76.40;;;;;;5041420;28;20500;-72
2022/12/29 10:42:49;;;;;;;5.10;1.90;;;12.90;76.40;;;;;;5040868;28;20489;-72
2022/12/29 10:45:20;;;;;;;6.70;2.60;;;12.90;76.40;;;;;;5045970;28;20718;-73
2022/12/29 10:47:55;;;;;;;5.27;1.90;;;12.80;76.50;;;;;;5060444;28;20486;-71
2022/12/29 10:50:25;;;;;;;6.77;2.63;;;12.80;76.40;;;;;;5045238;28;20506;-72
2022/12/29 10:52:54;;;;;;;5.60;2.47;;;12.80;76.60;;;;;;5044519;28;20524;-72
2022/12/29 10:55:27;;;;;;;5.83;2.50;;;12.80;76.60;;;;;;5045851;28;20504;-72
2022/12/29 10:58:00;;;;;;;5.10;2.50;;;12.70;76.80;;;;;;5044695;28;21038;-72
2022/12/29 11:00:29;;;;;;;5.17;2.20;;;12.70;76.70;;;;;;5045668;28;20455;-72
2022/12/29 11:03:22;;;;;;;7.00;2.40;;;12.70;76.90;;;;;;5045701;28;20480;-72
2022/12/29 11:05:55;;;;;;;5.23;2.43;;;12.60;76.90;;;;;;5042036;28;20514;-71
2022/12/29 11:08:26;;;;;;;7.10;2.90;;;12.60;76.90;;;;;;5045653;28;20475;-73
2022/12/29 11:11:02;;;;;;;6.60;3.03;;;12.70;76.90;;;;;;5044630;28;20476;-71
2022/12/29 11:13:32;;;;;;;4.57;2.03;;;12.60;77.00;;;;;;5044781;28;20536;-73
2022/12/29 11:16:08;;;;;;;8.50;2.77;;;12.60;77.30;;;;;;5045071;28;20455;-71
2022/12/29 11:18:39;;;;;;;5.33;2.53;;;12.60;77.20;;;;;;5043093;28;20478;-72
2022/12/29 11:21:25;;;;;;;7.47;1.97;;;12.50;77.20;;;;;;5043627;28;20505;-73
2022/12/29 11:23:57;;;;;;;8.07;2.83;;;12.60;77.30;;;;;;5044269;28;20449;-72
2022/12/29 11:26:26;;;;;;;6.40;2.33;;;12.60;77.30;;;;;;5044518;28;20458;-72
2022/12/29 11:29:21;;;;;;;6.60;2.53;;;12.60;77.30;;;;;;5044887;28;20502;-72
2022/12/29 11:31:54;;;;;;;8.80;3.13;;;12.60;77.30;;;;;;5043512;28;20479;-71
2022/12/29 11:34:25;;;;;;;6.30;2.40;;;12.60;77.40;;;;;;5045047;28;20455;-71
2022/12/29 11:36:59;;;;;;;4.80;2.53;;;12.50;77.40;;;;;;5044544;28;20447;-72
2022/12/29 11:39:41;;;;;;;8.43;2.20;;;12.60;77.50;;;;;;5043912;28;21227;-72
2022/12/29 11:42:16;;;;;;;7.53;2.50;;;12.60;77.50;;;;;;5043729;28;20486;-72
2022/12/29 11:44:46;;;;;;;5.90;1.90;;;12.60;77.50;;;;;;5044653;28;20523;-72
2022/12/29 11:47:26;;;;;;;4.43;2.10;;;12.50;77.60;;;;;;5044875;28;21020;-72
2022/12/29 11:49:57;;;;;;;11.70;2.00;;;12.50;77.60;;;;;;5042928;28;21427;-72
2022/12/29 11:52:27;;;;;;;5.70;2.07;;;12.50;77.70;;;;;;5044323;28;20471;-71
2022/12/29 11:54:57;;;;;;;6.40;2.23;;;12.50;77.60;;;;;;5064215;28;20490;-72
2022/12/29 11:57:26;;;;;;;6.33;1.97;;;12.60;77.70;;;;;;5035072;28;20479;-71
2022/12/29 11:59:55;;;;;;;5.40;2.20;;;12.70;77.80;;;;;;5041656;28;20459;-71
2022/12/29 12:02:37;;;;;;;4.60;2.00;;;12.80;77.80;;;;;;5044081;28;20673;-71
2022/12/29 12:05:31;;;;;;;4.23;1.70;;;12.90;77.90;;;;;;5043346;28;21383;-72
2022/12/29 12:08:05;;;;;;;4.77;1.83;;;13.10;77.50;;;;;;5043204;28;20535;-72
2022/12/29 12:10:38;;;;;;;5.60;2.13;;;13.20;77.20;;;;;;5044582;28;20437;-72
2022/12/29 12:13:15;;;;;;;4.70;1.93;;;13.30;77.00;;;;;;5040560;28;20503;-71
2022/12/29 12:15:48;;;;;;;4.23;1.93;;;13.40;76.90;;;;;;5059012;28;20559;-72
2022/12/29 12:18:35;;;;;;;6.70;1.67;;;13.30;76.90;;;;;;5042179;28;20488;-72
2022/12/29 12:21:10;;;;;;;6.30;2.00;;;13.40;76.70;;;;;;5042515;28;20516;-72
2022/12/29 12:23:48;;;;;;;6.70;2.20;;;13.50;76.60;;;;;;5043528;28;20482;-71
2022/12/29 12:26:20;;;;;;;5.97;2.07;;;13.50;76.40;;;;;;5042312;28;20475;-72
2022/12/29 12:28:53;;;;;;;5.60;2.07;;;13.50;76.60;;;;;;5042210;28;20493;-71
2022/12/29 12:31:34;;;;;;;5.97;1.57;;;13.60;76.30;;;;;;5043193;28;20508;-71
2022/12/29 12:34:12;;;;;;;5.57;1.57;;;13.60;76.30;;;;;;5042924;28;20447;-71
2022/12/29 12:37:00;;;;;;;5.57;1.67;;;13.70;75.80;;;;;;5042012;28;20447;-70
2022/12/29 12:39:35;;;;;;;4.47;1.47;;;13.80;75.70;;;;;;5042949;28;20461;-71
2022/12/29 12:42:13;;;;;;;4.67;1.50;;;13.70;75.60;;;;;;5041697;28;20466;-71
2022/12/29 12:44:54;;;;;;;4.13;1.50;;;13.80;75.50;;;;;;5041881;28;20471;-70
2022/12/29 12:47:42;;;;;;;6.10;1.60;;;13.80;75.40;;;;;;5041131;28;21014;-71
2022/12/29 12:50:25;;;;;;;4.20;1.60;;;13.70;75.30;;;;;;5042720;28;20508;-70
2022/12/29 12:53:23;;;;;;;7.57;1.90;;;13.70;75.40;;;;;;5041327;28;20479;-70
2022/12/29 12:56:04;;;;;;;3.40;1.30;;;13.60;75.30;;;;;;5043002;28;20456;-71
2022/12/29 12:58:41;;;;;;;4.30;1.57;;;13.50;75.40;;;;;;5041091;28;21311;-71
2022/12/29 13:01:20;;;;;;;5.13;1.37;;;13.50;75.40;;;;;;5042063;28;20463;-70
2022/12/29 13:04:03;;;;;;;4.10;1.77;;;13.50;75.40;;;;;;5041715;28;20455;-70
2022/12/29 13:06:43;;;;;;;3.70;1.30;;;13.40;75.60;;;;;;5042263;28;21187;-71
2022/12/29 13:09:29;;;;;;;4.10;1.70;;;13.40;75.50;;;;;;5042896;28;20489;-71
2022/12/29 13:12:17;;;;;;;12.37;6.60;;;13.40;75.70;;;;;;5040079;28;20566;-71
2022/12/29 13:15:03;;;;;;;5.20;2.00;;;13.40;75.60;;;;;;5040657;28;20453;-71
2022/12/29 13:17:37;;;;;;;5.73;1.70;;;13.40;75.50;;;;;;5058476;28;20489;-71
2022/12/29 13:20:18;;;;;;;3.80;1.53;;;13.30;75.70;;;;;;5040833;28;21006;-71
2022/12/29 13:22:52;;;;;;;4.63;1.80;;;13.30;75.70;;;;;;5040366;28;20531;-72
2022/12/29 13:25:29;;;;;;;8.10;1.80;;;13.20;75.80;;;;;;5041105;28;20481;-70
2022/12/29 13:28:06;;;;;;;4.70;1.60;;;13.10;76.00;;;;;;5040622;28;20481;-71
2022/12/29 13:30:38;;;;;;;5.30;1.43;;;13.10;76.10;;;;;;5040837;28;20450;-71
2022/12/29 13:33:17;;;;;;;5.33;2.00;;;13.00;76.20;;;;;;5042068;28;20490;-72
2022/12/29 13:36:03;;;;;;;5.13;1.43;;;13.00;76.30;;;;;;5042526;28;20537;-71
2022/12/29 13:38:36;;;;;;;6.07;1.80;;;13.00;76.40;;;;;;5042225;28;20451;-70
2022/12/29 13:41:09;;;;;;;5.87;1.53;;;13.00;76.40;;;;;;5041119;28;21225;-71
2022/12/29 13:43:40;;;;;;;4.50;2.23;;;13.00;76.30;;;;;;5038849;28;20589;-71
2022/12/29 13:46:12;;;;;;;3.60;1.20;;;13.00;76.10;;;;;;5040477;28;20491;-71
2022/12/29 13:48:47;;;;;;;4.03;1.23;;;13.00;76.20;;;;;;5040693;28;20585;-71